Time;durP1;ratioP1;P1;durP2;ratioP2;P2;SDS_P1;SDS_P2;PMS_P1;PMS_P2;Temp;Humidity;BMP_temperature;BMP_pressure;BME280_temperature;BME280_humidity;BME280_pressure;Samples;Min_cycle;Max_cycle;Signal;HPM_P1;HPM_P2
2022/04/03 00:00:37;;;;;;;8.90;4.25;;;;;;;;;;4995798;28;20708;-72
2022/04/03 00:03:04;;;;;;;11.70;4.70;;;1.20;1.00;;;;;;4995721;28;20182;-72
2022/04/03 00:05:33;;;;;;;8.85;4.90;;;;;;;;;;4995561;28;20595;-72
2022/04/03 00:07:59;;;;;;;8.50;4.50;;;;;;;;;;4986433;28;20165;-72
2022/04/03 00:10:25;;;;;;;7.03;4.70;;;;;;;;;;4995755;28;20178;-73
2022/04/03 00:12:51;;;;;;;5.43;4.30;;;;;;;;;;5002135;28;20185;-72
2022/04/03 00:15:17;;;;;;;7.10;4.77;;;1.10;1.00;;;;;;5013702;28;20392;-72
2022/04/03 00:17:45;;;;;;;6.20;4.70;;;1.20;1.00;;;;;;4994307;28;20904;-72
2022/04/03 00:20:11;;;;;;;7.38;4.40;;;;;;;;;;4995474;28;20201;-72
2022/04/03 00:22:37;;;;;;;5.30;4.13;;;;;;;;;;4995370;28;20192;-72
2022/04/03 00:25:04;;;;;;;6.87;4.63;;;1.20;1.00;;;;;;4995728;28;20241;-72
2022/04/03 00:27:30;;;;;;;6.05;4.93;;;;;;;;;;4995781;28;20405;-72
2022/04/03 00:29:56;;;;;;;5.90;4.50;;;;;;;;;;4995543;28;20162;-72
2022/04/03 00:32:22;;;;;;;6.25;4.78;;;;;;;;;;4995112;28;20895;-72
2022/04/03 00:34:48;;;;;;;4.65;4.00;;;;;;;;;;4995253;28;20580;-72
2022/04/03 00:37:14;;;;;;;5.40;4.30;;;;;;;;;;4995730;28;20216;-72
2022/04/03 00:39:41;;;;;;;7.97;4.88;;;;;;;;;;4995366;28;20229;-72
2022/04/03 00:42:08;;;;;;;6.60;4.60;;;;;;;;;;4995332;28;20173;-74
2022/04/03 00:44:35;;;;;;;6.05;4.93;;;;;;;;;;4995195;28;20158;-74
2022/04/03 00:47:01;;;;;;;8.15;3.83;;;;;;;;;;4995161;28;20154;-74
2022/04/03 00:49:27;;;;;;;8.43;5.00;;;;;;;;;;4994955;28;20170;-74
2022/04/03 00:51:58;;;;;;;7.30;4.55;;;;;;;;;;4993166;28;20182;-74
2022/04/03 00:54:24;;;;;;;9.95;4.65;;;;;;;;;;4992861;28;20542;-74
2022/04/03 00:56:51;;;;;;;6.95;5.10;;;1.20;1.00;;;;;;4975990;28;20728;-74
2022/04/03 00:59:17;;;;;;;7.78;4.60;;;;;;;;;;4982947;28;20248;-74
2022/04/03 01:01:44;;;;;;;7.43;5.17;;;;;;;;;;4994676;28;20174;-74
2022/04/03 01:04:10;;;;;;;6.18;4.88;;;;;;;;;;4994934;28;20389;-74
2022/04/03 01:06:36;;;;;;;13.10;5.35;;;;;;;;;;4994904;28;20162;-74
2022/04/03 01:09:03;;;;;;;8.27;5.55;;;1.20;1.00;;;;;;4994857;28;20177;-74
2022/04/03 01:11:29;;;;;;;8.15;5.00;;;;;;;;;;4993722;28;20186;-74
2022/04/03 01:13:55;;;;;;;8.80;5.43;;;;;;;;;;4996214;28;20182;-74
2022/04/03 01:16:21;;;;;;;8.60;5.43;;;;;;;;;;4994491;28;20189;-74
2022/04/03 01:18:47;;;;;;;6.55;4.75;;;;;;;;;;4994362;28;20456;-74
2022/04/03 01:21:14;;;;;;;9.73;5.80;;;;;;;;;;4994171;28;20185;-74
2022/04/03 01:23:40;;;;;;;6.57;5.20;;;;;;;;;;4994128;28;20174;-74
2022/04/03 01:26:09;;;;;;;9.77;5.40;;;;;;;;;;4994140;28;20181;-72
2022/04/03 01:28:35;;;;;;;5.18;4.68;;;;;;;;;;4994033;28;20260;-72
2022/04/03 01:31:02;;;;;;;6.00;4.70;;;;;;;;;;4994288;28;20264;-72
2022/04/03 01:33:28;;;;;;;9.88;5.53;;;;;;;;;;4993820;28;20192;-72
2022/04/03 01:35:54;;;;;;;10.48;4.78;;;;;;;;;;4994211;28;20184;-72
2022/04/03 01:38:20;;;;;;;7.53;4.88;;;;;;;;;;4993807;28;20198;-72
2022/04/03 01:40:46;;;;;;;8.68;4.68;;;;;;;;;;4994035;28;20534;-72
2022/04/03 01:43:12;;;;;;;6.55;4.60;;;;;;;;;;4993874;28;20668;-72
2022/04/03 01:45:39;;;;;;;9.90;4.70;;;0.80;1.00;;;;;;4993543;28;20201;-72
2022/04/03 01:48:06;;;;;;;8.60;5.28;;;;;;;;;;4993670;28;20448;-72
2022/04/03 01:50:32;;;;;;;7.18;4.80;;;;;;;;;;4993964;28;20629;-72
2022/04/03 01:52:58;;;;;;;6.35;4.60;;;0.60;1.00;;;;;;4993318;28;20225;-72
2022/04/03 01:55:25;;;;;;;11.13;4.70;;;;;;;;;;4993825;28;20178;-72
2022/04/03 01:57:51;;;;;;;5.07;4.22;;;;;;;;;;4994007;28;20581;-72
2022/04/03 02:00:18;;;;;;;6.23;3.97;;;;;;;;;;4993527;28;20186;-72
2022/04/03 02:02:45;;;;;;;8.85;4.80;;;;;;;;;;4993469;28;20839;-72
2022/04/03 02:05:11;;;;;;;22.75;4.90;;;;;;;;;;4992638;28;20174;-72
2022/04/03 02:07:38;;;;;;;6.00;4.65;;;;;;;;;;4993674;28;20174;-72
2022/04/03 02:10:09;;;;;;;6.63;4.25;;;0.50;1.00;;;;;;4993539;28;20645;-72
2022/04/03 02:12:35;;;;;;;9.25;4.10;;;;;;;;;;4998828;28;20172;-74
2022/04/03 02:15:02;;;;;;;10.27;3.92;;;;;;;;;;4996497;28;20204;-74
2022/04/03 02:17:28;;;;;;;5.25;4.15;;;;;;;;;;4993534;28;20232;-74
2022/04/03 02:19:54;;;;;;;5.05;3.70;;;0.60;1.00;;;;;;4993064;28;20339;-74
2022/04/03 02:22:20;;;;;;;6.38;4.30;;;;;;;;;;4993283;28;20177;-72
2022/04/03 02:24:46;;;;;;;5.50;3.70;;;;;;;;;;4993025;28;20173;-72
2022/04/03 02:27:12;;;;;;;8.53;4.20;;;;;;;;;;4993854;28;20174;-74
2022/04/03 02:29:38;;;;;;;7.97;3.23;;;;;;;;;;4993309;28;20967;-75
2022/04/03 02:32:04;;;;;;;5.10;4.27;;;0.60;1.00;;;;;;4993402;28;20425;-74
2022/04/03 02:34:30;;;;;;;7.83;3.83;;;;;;;;;;4992917;28;20432;-74
2022/04/03 02:36:56;;;;;;;3.80;3.20;;;;;;;;;;4993452;28;20496;-74
2022/04/03 02:39:24;;;;;;;4.93;3.95;;;0.50;1.00;;;;;;4993086;28;20267;-74
2022/04/03 02:41:53;;;;;;;6.45;4.22;;;0.50;1.00;;;;;;4997669;28;20181;-73
2022/04/03 02:44:19;;;;;;;4.85;3.30;;;;;;;;;;4996589;28;20216;-75
2022/04/03 02:46:45;;;;;;;5.40;3.60;;;;;;;;;;4997063;28;20177;-74
2022/04/03 02:49:11;;;;;;;5.20;3.45;;;;;;;;;;4996490;28;20516;-75
2022/04/03 02:51:37;;;;;;;8.97;4.20;;;;;;;;;;4997459;28;20269;-74
2022/04/03 02:54:03;;;;;;;9.20;4.40;;;;;;;;;;4996870;28;20470;-74
2022/04/03 02:56:29;;;;;;;5.53;4.18;;;;;;;;;;4997181;28;20428;-74
2022/04/03 02:58:55;;;;;;;4.72;3.50;;;;;;;;;;4997473;28;20209;-72
2022/04/03 03:01:22;;;;;;;7.28;3.45;;;;;;;;;;4996587;28;20169;-72
2022/04/03 03:03:48;;;;;;;6.88;3.70;;;;;;;;;;4997035;28;20181;-72
2022/04/03 03:06:14;;;;;;;5.85;3.50;;;;;;;;;;4995844;28;20182;-72
2022/04/03 03:08:41;;;;;;;5.43;3.33;;;;;;;;;;4996833;28;20666;-72
2022/04/03 03:11:07;;;;;;;4.80;3.08;;;;;;;;;;4996892;28;20185;-72
2022/04/03 03:13:33;;;;;;;4.90;3.53;;;;;;;;;;4996317;28;20186;-74
2022/04/03 03:15:59;;;;;;;4.88;2.70;;;;;;;;;;4996493;28;20923;-74
2022/04/03 03:18:25;;;;;;;4.00;3.50;;;;;;;;;;4996464;28;20199;-74
2022/04/03 03:20:51;;;;;;;5.63;3.37;;;;;;;;;;4996613;28;20417;-74
2022/04/03 03:23:17;;;;;;;2.72;2.63;;;;;;;;;;4996303;28;20431;-74
2022/04/03 03:25:45;;;;;;;5.57;3.00;;;;;;;;;;4996147;28;20178;-74
2022/04/03 03:28:11;;;;;;;5.60;3.17;;;;;;;;;;4996954;28;20209;-74
2022/04/03 03:30:37;;;;;;;14.50;3.90;;;;;;;;;;4996503;28;20240;-74
2022/04/03 03:33:03;;;;;;;18.00;3.22;;;;;;;;;;4996246;28;20192;-74
2022/04/03 03:35:30;;;;;;;3.90;3.25;;;;;;;;;;4995978;28;20260;-74
2022/04/03 03:37:56;;;;;;;10.68;3.65;;;;;;;;;;4996706;28;20568;-74
2022/04/03 03:40:23;;;;;;;4.75;3.63;;;;;;;;;;4995958;28;20649;-74
2022/04/03 03:42:49;;;;;;;6.65;3.38;;;;;;;;;;4995827;28;20264;-74
2022/04/03 03:45:16;;;;;;;4.47;3.20;;;;;;;;;;4995852;28;20250;-74
2022/04/03 03:47:46;;;;;;;9.15;3.80;;;;;;;;;;4995623;28;20535;-74
2022/04/03 03:50:12;;;;;;;4.85;2.92;;;;;;;;;;4996014;28;20225;-74
2022/04/03 03:52:38;;;;;;;7.28;3.70;;;-0.10;1.00;;;;;;4995484;28;20718;-74
2022/04/03 03:55:04;;;;;;;7.73;3.57;;;;;;;;;;4996039;28;20185;-74
2022/04/03 03:57:30;;;;;;;5.70;3.15;;;;;;;;;;4995824;28;20301;-72
2022/04/03 03:59:56;;;;;;;6.82;3.53;;;;;;;;;;4995899;28;20221;-74
2022/04/03 04:02:22;;;;;;;5.38;3.45;;;;;;;;;;4995852;28;20170;-74
2022/04/03 04:04:48;;;;;;;4.33;3.87;;;;;;;;;;4995712;28;20273;-74
2022/04/03 04:07:14;;;;;;;4.20;3.77;;;;;;;;;;4995923;28;20436;-74
2022/04/03 04:09:41;;;;;;;4.95;3.60;;;;;;;;;;4995657;28;20416;-74
2022/04/03 04:12:09;;;;;;;7.03;3.55;;;;;;;;;;4996947;28;20253;-74
2022/04/03 04:14:35;;;;;;;5.00;3.47;;;;;;;;;;4996712;28;20725;-72
2022/04/03 04:17:01;;;;;;;3.35;3.05;;;;;;;;;;4995709;28;20181;-72
2022/04/03 04:19:28;;;;;;;3.35;2.92;;;;;;;;;;4995257;28;20615;-72
2022/04/03 04:21:54;;;;;;;3.08;2.65;;;;;;;;;;4995561;28;20173;-72
2022/04/03 04:24:20;;;;;;;8.70;3.40;;;;;;;;;;4995260;28;20277;-74
2022/04/03 04:26:46;;;;;;;4.93;3.00;;;;;;;;;;4995528;28;20762;-74
2022/04/03 04:29:12;;;;;;;2.87;2.63;;;;;;;;;;4995798;28;20417;-72
2022/04/03 04:31:38;;;;;;;4.83;3.00;;;;;;;;;;4995110;28;20948;-72
2022/04/03 04:34:04;;;;;;;2.97;2.67;;;;;;;;;;4994756;28;20429;-72
2022/04/03 04:36:30;;;;;;;4.72;2.30;;;;;;;;;;4993984;28;20436;-72
2022/04/03 04:38:57;;;;;;;2.37;2.17;;;;;;;;;;4995281;28;20197;-72
2022/04/03 04:41:23;;;;;;;3.92;2.75;;;;;;;;;;4995219;28;20401;-72
2022/04/03 04:43:49;;;;;;;6.05;2.53;;;;;;;;;;4994918;28;20209;-72
2022/04/03 04:46:15;;;;;;;6.28;2.72;;;;;;;;;;4994860;28;20177;-72
2022/04/03 04:48:41;;;;;;;7.10;2.70;;;;;;;;;;4994685;28;20193;-72
2022/04/03 04:51:09;;;;;;;2.97;2.60;;;;;;;;;;4992899;28;20449;-72
2022/04/03 04:53:35;;;;;;;3.00;2.70;;;;;;;;;;4995017;28;20440;-72
2022/04/03 04:56:01;;;;;;;3.75;2.50;;;;;;;;;;4994988;28;20170;-72
2022/04/03 04:58:28;;;;;;;8.38;3.05;;;;;;;;;;4995120;28;20194;-74
2022/04/03 05:00:54;;;;;;;3.55;2.28;;;;;;;;;;4995024;28;20165;-74
2022/04/03 05:03:20;;;;;;;6.70;2.67;;;;;;;;;;4993694;28;20182;-74
2022/04/03 05:05:46;;;;;;;3.23;2.70;;;;;;;;;;4995116;28;20389;-74
2022/04/03 05:08:13;;;;;;;2.92;2.17;;;;;;;;;;4994904;28;20476;-74
2022/04/03 05:10:39;;;;;;;4.90;3.03;;;;;;;;;;4994768;28;20165;-74
2022/04/03 05:13:12;;;;;;;7.13;2.50;;;-0.30;1.00;;;;;;5003821;28;20597;-72
2022/04/03 05:15:38;;;;;;;3.72;2.30;;;;;;;;;;4993370;28;20421;-74
2022/04/03 05:18:05;;;;;;;14.57;3.38;;;;;;;;;;4994546;28;20248;-74
2022/04/03 05:20:31;;;;;;;6.82;2.63;;;;;;;;;;4994809;28;20289;-74
2022/04/03 05:22:57;;;;;;;5.13;2.50;;;;;;;;;;4994335;28;20177;-74
2022/04/03 05:25:23;;;;;;;7.95;2.75;;;;;;;;;;4994165;28;20166;-74
2022/04/03 05:27:53;;;;;;;4.43;2.35;;;;;;;;;;4994490;28;20224;-74
2022/04/03 05:30:19;;;;;;;2.67;1.90;;;;;;;;;;4994806;28;20158;-72
2022/04/03 05:32:45;;;;;;;11.88;3.05;;;;;;;;;;4994289;28;20162;-72
2022/04/03 05:35:13;;;;;;;21.10;4.28;;;;;;;;;;4994085;28;20173;-72
2022/04/03 05:37:39;;;;;;;9.43;5.05;;;;;;;;;;4994241;28;20170;-72
2022/04/03 05:40:05;;;;;;;25.63;16.67;;;;;;;;;;4994237;28;20186;-72
2022/04/03 05:42:33;;;;;;;100.90;43.53;;;;;;;;;;4993868;28;20221;-72
2022/04/03 05:44:59;;;;;;;14.10;8.35;;;;;;;;;;4993966;28;20664;-74
2022/04/03 05:47:26;;;;;;;85.30;33.50;;;;;;;;;;4987694;28;20185;-74
2022/04/03 05:49:52;;;;;;;11.07;2.75;;;;;;;;;;4993548;28;20189;-72
2022/04/03 05:52:18;;;;;;;9.60;2.90;;;;;;;;;;4993604;28;20190;-71
2022/04/03 05:54:44;;;;;;;7.10;2.85;;;;;;;;;;4993511;28;20920;-71
2022/04/03 05:57:10;;;;;;;5.37;2.40;;;;;;;;;;4993491;28;20186;-71
2022/04/03 05:59:37;;;;;;;4.40;2.00;;;;;;;;;;4994080;28;20463;-72
2022/04/03 06:02:03;;;;;;;5.07;2.00;;;;;;;;;;4993554;28;20641;-72
2022/04/03 06:04:30;;;;;;;5.40;1.80;;;;;;;;;;4993071;28;20653;-72
2022/04/03 06:06:56;;;;;;;5.13;1.80;;;;;;;;;;4993724;28;20166;-72
2022/04/03 06:09:22;;;;;;;4.88;1.75;;;;;;;;;;4993626;28;20637;-72
2022/04/03 06:11:48;;;;;;;2.70;1.70;;;;;;;;;;4993620;28;20228;-72
2022/04/03 06:14:14;;;;;;;4.87;1.80;;;;;;;;;;4995396;28;20451;-72
2022/04/03 06:16:40;;;;;;;4.10;1.70;;;;;;;;;;4993444;28;20409;-72
2022/04/03 06:19:06;;;;;;;6.82;2.30;;;;;;;;;;4993407;28;20459;-72
2022/04/03 06:21:32;;;;;;;4.10;1.67;;;;;;;;;;4993477;28;20178;-72
2022/04/03 06:23:58;;;;;;;4.00;1.80;;;;;;;;;;4993085;28;20177;-72
2022/04/03 06:26:24;;;;;;;6.20;2.30;;;;;;;;;;4993538;28;20228;-72
2022/04/03 06:28:50;;;;;;;5.33;1.93;;;;;;;;;;4993590;28;20415;-70
2022/04/03 06:31:16;;;;;;;6.72;2.05;;;;;;;;;;4993247;28;20416;-72
2022/04/03 06:33:42;;;;;;;9.10;2.20;;;;;;;;;;4992926;28;20571;-72
2022/04/03 06:36:08;;;;;;;2.07;1.60;;;;;;;;;;4993426;28;20448;-72
2022/04/03 06:38:34;;;;;;;3.05;1.55;;;;;;;;;;4993015;28;20884;-72
2022/04/03 06:41:00;;;;;;;3.25;1.38;;;;;;;;;;4993028;28;20587;-72
2022/04/03 06:43:28;;;;;;;3.40;1.65;;;1.30;1.00;;;;;;4992955;28;20174;-72
2022/04/03 06:45:56;;;;;;;2.13;1.38;;;1.30;1.00;;;;;;4993150;28;20543;-72
2022/04/03 06:48:22;;;;;;;2.65;1.58;;;;;;;;;;4992944;28;20173;-72
2022/04/03 06:50:48;;;;;;;2.28;1.50;;;;;;;;;;4993579;28;20192;-72
2022/04/03 06:53:14;;;;;;;4.85;1.58;;;;;;;;;;4992750;28;20284;-72
2022/04/03 06:55:40;;;;;;;2.60;1.60;;;;;;;;;;4992679;28;20269;-72
2022/04/03 06:58:07;;;;;;;3.13;1.35;;;;;;;;;;4992696;28;20996;-72
2022/04/03 07:00:35;;;;;;;4.18;1.77;;;1.70;1.00;;;;;;4993528;28;20174;-72
2022/04/03 07:03:01;;;;;;;6.95;2.95;;;;;;;;;;4992757;28;20541;-72
2022/04/03 07:05:27;;;;;;;8.40;1.95;;;;;;;;;;4992650;28;20189;-72
2022/04/03 07:07:53;;;;;;;9.23;2.00;;;;;;;;;;4991947;28;20197;-73
2022/04/03 07:10:20;;;;;;;4.10;1.60;;;;;;;;;;4993045;28;20185;-72
2022/04/03 07:12:46;;;;;;;2.33;1.38;;;;;;;;;;4995119;28;20295;-73
2022/04/03 07:15:13;;;;;;;3.70;1.48;;;;;;;;;;4992588;28;20174;-70
2022/04/03 07:17:40;;;;;;;5.63;1.80;;;;;;;;;;4992034;28;20178;-71
2022/04/03 07:20:06;;;;;;;4.80;1.75;;;;;;;;;;4992537;28;20213;-68
2022/04/03 07:22:32;;;;;;;3.47;1.50;;;;;;;;;;4992849;28;20633;-70
2022/04/03 07:24:58;;;;;;;2.77;1.50;;;;;;;;;;4992960;28;20174;-69
2022/04/03 07:27:24;;;;;;;4.68;1.63;;;;;;;;;;4995760;28;20423;-69
2022/04/03 07:29:50;;;;;;;3.27;1.57;;;;;;;;;;4996921;28;20178;-72
2022/04/03 07:32:16;;;;;;;7.18;1.60;;;;;;;;;;4996457;28;20420;-73
2022/04/03 07:34:42;;;;;;;4.47;1.23;;;;;;;;;;4995899;28;20181;-73
2022/04/03 07:37:08;;;;;;;5.80;1.23;;;;;;;;;;4996073;28;20543;-72
2022/04/03 07:39:34;;;;;;;9.80;1.67;;;;;;;;;;4993223;28;20559;-72
2022/04/03 07:42:03;;;;;;;44.47;20.83;;;;;;;;;;4996141;28;20424;-72
2022/04/03 07:44:29;;;;;;;4.53;1.40;;;;;;;;;;4996553;28;20173;-71
2022/04/03 07:46:56;;;;;;;5.60;1.73;;;;;;;;;;4996978;28;20495;-70
2022/04/03 07:49:22;;;;;;;6.22;1.48;;;;;;;;;;4996550;28;20660;-70
2022/04/03 07:51:48;;;;;;;6.93;1.65;;;;;;;;;;4996791;28;20194;-70
2022/04/03 07:54:14;;;;;;;9.13;2.35;;;;;;;;;;4996095;28;20676;-70
2022/04/03 07:56:40;;;;;;;6.35;2.00;;;;;;;;;;4996477;28;20185;-70
2022/04/03 07:59:07;;;;;;;9.82;2.45;;;;;;;;;;4996565;28;20197;-70
2022/04/03 08:01:35;;;;;;;6.32;1.55;;;;;;;;;;4996733;28;20177;-74
2022/04/03 08:04:01;;;;;;;9.18;1.83;;;;;;;;;;4996641;28;20515;-74
2022/04/03 08:06:29;;;;;;;9.63;2.47;;;;;;;;;;4996345;28;20188;-73
2022/04/03 08:08:55;;;;;;;5.88;1.98;;;;;;;;;;4996215;28;20181;-73
2022/04/03 08:11:21;;;;;;;7.07;2.13;;;;;;;;;;4996545;28;20550;-73
2022/04/03 08:13:47;;;;;;;11.77;3.00;;;;;;;;;;5000022;28;20743;-73
2022/04/03 08:16:14;;;;;;;6.67;2.07;;;;;;;;;;4996082;28;20181;-70
2022/04/03 08:18:40;;;;;;;6.30;1.92;;;;;;;;;;4995488;28;20487;-70
2022/04/03 08:21:06;;;;;;;6.60;1.60;;;;;;;;;;4995315;28;20189;-70
2022/04/03 08:23:32;;;;;;;9.97;2.60;;;;;;;;;;4995184;28;20424;-70
2022/04/03 08:25:58;;;;;;;4.93;1.33;;;;;;;;;;4995643;28;20421;-72
2022/04/03 08:28:24;;;;;;;10.88;2.28;;;;;;;;;;4995049;28;20755;-73
2022/04/03 08:30:51;;;;;;;5.13;1.63;;;;;;;;;;4995895;28;20185;-75
2022/04/03 08:33:17;;;;;;;9.85;2.55;;;;;;;;;;4994986;28;20845;-75
2022/04/03 08:35:43;;;;;;;8.18;2.22;;;;;;;;;;4995108;28;20178;-75
2022/04/03 08:38:09;;;;;;;5.18;2.08;;;;;;;;;;4994220;28;20174;-75
2022/04/03 08:40:35;;;;;;;8.77;2.27;;;;;;;;;;4994982;28;20656;-75
2022/04/03 08:43:02;;;;;;;9.00;2.43;;;4.40;99.90;;;;;;4994602;28;20493;-75
2022/04/03 08:45:29;;;;;;;6.43;1.87;;;;;;;;;;4995209;28;20433;-73
2022/04/03 08:47:56;;;;;;;15.02;2.78;;;;;;;;;;4994607;28;20413;-73
2022/04/03 08:50:36;;;;;;;13.47;1.90;;;4.20;99.90;;;;;;4995178;28;20272;-72
2022/04/03 08:53:04;;;;;;;7.27;2.00;;;4.30;99.90;;;;;;4994734;28;21004;-72
2022/04/03 08:55:31;;;;;;;5.30;1.37;;;;;;;;;;4994608;28;20791;-72
2022/04/03 08:57:57;;;;;;;5.70;1.50;;;;;;;;;;4994999;28;20412;-72
2022/04/03 09:00:23;;;;;;;5.13;1.40;;;;;;;;;;4994823;28;20848;-74
2022/04/03 09:02:50;;;;;;;6.20;1.50;;;;;;;;;;4994851;28;20194;-75
2022/04/03 09:05:17;;;;;;;8.20;1.95;;;;;;;;;;4994029;28;20433;-75
2022/04/03 09:07:43;;;;;;;9.40;1.90;;;4.70;99.90;;;;;;4994801;28;20178;-75
2022/04/03 09:10:14;;;;;;;17.97;3.87;;;4.80;99.90;;;;;;4993955;28;20443;-75
2022/04/03 09:12:43;;;;;;;5.72;1.65;;;;;;;;;;5000334;28;20554;-75
2022/04/03 09:15:14;;;;;;;5.97;1.63;;;4.80;99.90;;;;;;4995409;28;20178;-75
2022/04/03 09:18:06;;;;;;;6.30;1.77;;;5.00;99.90;;;;;;4995035;28;20958;-75
2022/04/03 09:20:36;;;;;;;5.65;1.45;;;5.10;99.90;;;;;;4994149;28;20436;-75
2022/04/03 09:23:04;;;;;;;9.87;1.87;;;5.20;99.90;;;;;;4994527;28;20700;-75
2022/04/03 09:25:35;;;;;;;5.77;1.47;;;5.30;99.90;;;;;;4994106;28;20428;-75
2022/04/03 09:28:06;;;;;;;8.50;2.50;;;5.20;99.90;;;;;;4994317;28;20807;-76
2022/04/03 09:30:35;;;;;;;9.87;2.10;;;;;;;;;;4993752;28;20431;-73
2022/04/03 09:33:02;;;;;;;6.33;1.73;;;5.20;99.90;;;;;;4994077;28;20432;-76
2022/04/03 09:35:52;;;;;;;8.13;1.83;;;5.40;99.90;;;;;;4993830;28;20451;-75
2022/04/03 09:38:18;;;;;;;9.50;2.10;;;;;;;;;;4993889;28;20472;-76
2022/04/03 09:40:52;;;;;;;8.17;2.30;;;5.60;99.90;;;;;;4992825;28;20532;-75
2022/04/03 09:43:31;;;;;;;7.50;2.57;;;5.70;99.90;;;;;;4993918;28;20935;-76
2022/04/03 09:46:03;;;;;;;8.03;1.90;;;5.60;99.90;;;;;;4983178;28;20439;-72
2022/04/03 09:48:31;;;;;;;11.97;2.53;;;;;;;;;;4993116;28;20479;-72
2022/04/03 09:50:57;;;;;;;8.07;1.77;;;;;;;;;;4994333;28;20417;-72
2022/04/03 09:53:23;;;;;;;7.07;1.73;;;;;;;;;;4993835;28;20503;-73
2022/04/03 09:55:49;;;;;;;7.90;2.20;;;;;;;;;;4993351;28;20930;-72
2022/04/03 09:58:16;;;;;;;5.20;1.67;;;;;;;;;;4992795;28;20531;-72
2022/04/03 10:00:44;;;;;;;3.13;1.30;;;;;;;;;;4993881;28;20421;-73
2022/04/03 10:03:11;;;;;;;7.73;1.87;;;;;;;;;;4992451;28;20410;-76
2022/04/03 10:05:37;;;;;;;5.87;1.67;;;;;;;;;;4985956;28;20442;-75
2022/04/03 10:08:05;;;;;;;12.60;2.60;;;;;;;;;;4978248;28;20421;-76
2022/04/03 10:10:33;;;;;;;5.80;1.70;;;6.40;99.90;;;;;;4993464;28;20905;-75
2022/04/03 10:13:00;;;;;;;5.50;1.57;;;;;;;;;;5002066;28;20408;-76
2022/04/03 10:15:26;;;;;;;1.80;1.13;;;;;;;;;;5013439;28;20420;-76
2022/04/03 10:17:53;;;;;;;34.33;5.73;;;;;;;;;;5011065;28;20481;-75
2022/04/03 10:20:19;;;;;;;8.37;2.60;;;;;;;;;;4988367;28;20467;-76
2022/04/03 10:22:48;;;;;;;17.73;9.93;;;;;;;;;;4993719;28;20405;-75
2022/04/03 10:25:17;;;;;;;19.67;5.93;;;;;;;;;;4993253;28;20424;-75
2022/04/03 10:27:44;;;;;;;11.60;6.00;;;;;;;;;;4993492;28;20409;-76
2022/04/03 10:30:10;;;;;;;20.50;5.13;;;;;;;;;;4992828;28;20437;-76
2022/04/03 10:32:36;;;;;;;7.43;2.77;;;;;;;;;;4993598;28;20876;-71
2022/04/03 10:35:04;;;;;;;19.30;5.00;;;;;;;;;;4993400;28;20467;-72
2022/04/03 10:37:30;;;;;;;12.33;3.90;;;;;;;;;;4993288;28;20903;-72
2022/04/03 10:40:00;;;;;;;13.50;4.40;;;;;;;;;;4992957;28;20463;-72
2022/04/03 10:42:26;;;;;;;26.57;5.80;;;;;;;;;;4992891;28;20526;-72
2022/04/03 10:45:11;;;;;;;10.83;5.50;;;;;;;;;;4993277;28;20507;-73
2022/04/03 10:47:37;;;;;;;11.23;3.77;;;;;;;;;;4992535;28;20444;-72
2022/04/03 10:50:04;;;;;;;33.30;21.50;;;6.80;99.90;;;;;;4992981;28;20440;-72
2022/04/03 10:52:42;;;;;;;17.43;10.43;;;;;;;;;;4992953;28;20439;-72
2022/04/03 10:55:15;;;;;;;33.93;16.20;;;;;;;;;;4993215;28;20420;-72
2022/04/03 10:57:48;;;;;;;41.47;23.10;;;;;;;;;;4992776;28;20425;-72
2022/04/03 11:00:17;;;;;;;15.03;6.60;;;;;;;;;;4984891;28;20461;-72
2022/04/03 11:02:45;;;;;;;1.60;1.30;;;6.30;99.90;;;;;;4996824;28;20856;-75
2022/04/03 11:05:28;;;;;;;26.93;16.50;;;;;;;;;;4997223;28;20830;-75
2022/04/03 11:08:14;;;;;;;84.03;36.50;;;;;;;;;;4996917;28;20416;-75
2022/04/03 11:10:54;;;;;;;20.57;4.47;;;;;;;;;;4996548;28;20463;-75
2022/04/03 11:13:24;;;;;;;7.33;3.70;;;;;;;;;;4999740;28;20427;-76
2022/04/03 11:15:55;;;;;;;16.40;8.47;;;;;;;;;;4996859;28;20759;-76
2022/04/03 11:18:28;;;;;;;32.57;21.73;;;;;;;;;;4997052;28;20440;-74
2022/04/03 11:21:25;;;;;;;77.57;34.93;;;6.80;99.90;;;;;;4992966;28;20503;-73
2022/04/03 11:23:53;;;;;;;64.20;25.63;;;;;;;;;;4996592;28;20448;-73
2022/04/03 11:26:19;;;;;;;47.73;27.53;;;;;;;;;;4996371;28;20420;-73
2022/04/03 11:28:46;;;;;;;76.73;36.20;;;;;;;;;;4996408;28;20408;-73
2022/04/03 11:31:12;;;;;;;89.73;39.57;;;;;;;;;;4993745;28;20438;-73
2022/04/03 11:33:39;;;;;;;86.37;38.10;;;;;;;;;;4996507;28;20446;-73
2022/04/03 11:36:09;;;;;;;135.47;48.27;;;;;;;;;;4996153;28;20428;-73
2022/04/03 11:38:36;;;;;;;87.30;39.07;;;;;;;;;;4996311;28;20452;-73
2022/04/03 11:41:06;;;;;;;77.03;36.07;;;;;;;;;;4996093;28;20908;-73
2022/04/03 11:43:32;;;;;;;60.67;32.83;;;;;;;;;;4994936;28;20433;-73
2022/04/03 11:45:59;;;;;;;68.70;34.67;;;;;;;;;;4996186;28;20441;-73
2022/04/03 11:48:29;;;;;;;64.50;33.50;;;;;;;;;;4996264;28;20417;-73
2022/04/03 11:51:04;;;;;;;11.47;3.10;;;;;;;;;;4995868;28;21003;-73
2022/04/03 11:53:31;;;;;;;5.70;1.83;;;;;;;;;;4995766;28;20951;-73
2022/04/03 11:55:57;;;;;;;20.23;5.00;;;;;;;;;;4996199;28;20420;-74
2022/04/03 11:58:38;;;;;;;7.80;2.43;;;7.40;99.90;;;;;;4995944;28;20419;-73
2022/04/03 12:01:04;;;;;;;1.90;1.80;;;;;;;;;;4995903;28;20946;-74
2022/04/03 12:03:30;;;;;;;2.07;1.60;;;;;;;;;;4995927;28;20893;-75
2022/04/03 12:06:15;;;;;;;2.10;1.53;;;;;;;;;;4996148;28;20420;-75
2022/04/03 12:08:42;;;;;;;2.43;1.90;;;7.50;99.90;;;;;;4996190;28;20412;-75
2022/04/03 12:11:24;;;;;;;3.70;1.93;;;7.80;99.90;;;;;;4995924;28;20420;-75
2022/04/03 12:13:50;;;;;;;4.83;2.13;;;;;;;;;;4997034;28;20915;-75
2022/04/03 12:16:20;;;;;;;2.23;2.00;;;8.00;99.90;;;;;;4995960;28;20466;-75
2022/04/03 12:18:54;;;;;;;4.73;2.17;;;8.20;99.90;;;;;;4996054;28;20536;-77
2022/04/03 12:21:21;;;;;;;2.70;1.73;;;;;;;;;;4995766;28;20437;-78
2022/04/03 12:24:05;;;;;;;5.67;2.40;;;;;;;;;;4982551;28;20535;-78
2022/04/03 12:26:32;;;;;;;4.97;2.30;;;8.50;99.90;;;;;;4995649;28;20408;-78
2022/04/03 12:28:59;;;;;;;2.70;1.63;;;;;;;;;;4995726;28;21046;-78
2022/04/03 12:31:35;;;;;;;3.40;1.90;;;;;;;;;;4995634;28;20467;-78
2022/04/03 12:34:17;;;;;;;4.07;1.90;;;;;;;;;;4995594;28;20472;-78
2022/04/03 12:36:47;;;;;;;3.50;1.80;;;;;;;;;;4995557;28;20416;-78
2022/04/03 12:39:28;;;;;;;5.67;2.10;;;;;;;;;;4995443;28;20424;-78
2022/04/03 12:41:54;;;;;;;5.70;2.30;;;;;;;;;;4995450;28;20409;-78
2022/04/03 12:44:20;;;;;;;4.00;2.00;;;;;;;;;;4993333;28;20487;-78
2022/04/03 12:46:47;;;;;;;4.20;2.20;;;;;;;;;;4995477;28;20924;-78
2022/04/03 12:49:19;;;;;;;4.13;2.17;;;9.20;99.90;;;;;;4995187;28;20870;-78
2022/04/03 12:51:49;;;;;;;4.67;2.07;;;8.80;99.90;;;;;;4995873;28;20447;-78
2022/04/03 12:54:15;;;;;;;4.27;1.80;;;;;;;;;;4994973;28;20955;-78
2022/04/03 12:59:38;;;;;;;2.40;2.10;;;;;;;;;;4995162;28;20463;-77
2022/04/03 13:02:08;;;;;;;16.90;2.97;;;;;;;;;;4994808;28;20577;-76
2022/04/03 13:04:34;;;;;;;4.10;2.00;;;;;;;;;;4995057;28;20428;-76
2022/04/03 13:07:00;;;;;;;3.93;2.37;;;;;;;;;;4994837;28;20804;-73
2022/04/03 13:09:26;;;;;;;8.43;2.20;;;;;;;;;;4987458;28;20463;-73
2022/04/03 13:11:53;;;;;;;4.20;2.20;;;8.10;99.90;;;;;;4994447;28;20427;-73
2022/04/03 13:14:19;;;;;;;3.23;1.80;;;;;;;;;;4998945;28;20420;-73
2022/04/03 13:16:46;;;;;;;4.23;1.93;;;8.10;99.90;;;;;;4994441;28;20421;-73
2022/04/03 13:19:12;;;;;;;4.07;2.17;;;;;;;;;;4994455;28;20444;-73
2022/04/03 13:21:41;;;;;;;2.87;1.63;;;8.60;99.90;;;;;;4994593;28;20413;-73
2022/04/03 13:24:07;;;;;;;7.80;2.13;;;;;;;;;;4993555;28;20424;-73
2022/04/03 13:26:33;;;;;;;3.03;1.50;;;;;;;;;;4994209;28;20495;-73
2022/04/03 13:28:59;;;;;;;4.57;1.90;;;;;;;;;;4992708;28;20962;-73
2022/04/03 13:31:25;;;;;;;4.10;2.17;;;;;;;;;;4994409;28;20559;-74
2022/04/03 13:33:52;;;;;;;6.03;2.27;;;;;;;;;;4994574;28;20871;-73
2022/04/03 13:36:19;;;;;;;2.93;1.87;;;;;;;;;;4994086;28;20452;-73
2022/04/03 13:38:45;;;;;;;5.80;2.13;;;;;;;;;;4981414;28;20433;-73
2022/04/03 13:41:13;;;;;;;5.60;1.90;;;;;;;;;;4994165;28;20471;-73
2022/04/03 13:43:39;;;;;;;9.00;2.47;;;;;;;;;;4993696;28;21431;-73
2022/04/03 13:46:05;;;;;;;4.07;2.23;;;;;;;;;;4993766;28;20944;-73
2022/04/03 13:48:37;;;;;;;3.53;1.97;;;9.80;99.90;;;;;;4993984;28;20515;-73
2022/04/03 13:51:12;;;;;;;3.47;1.87;;;9.90;99.90;;;;;;4994138;28;20506;-73
2022/04/03 13:53:38;;;;;;;13.20;2.70;;;;;;;;;;4981746;28;20436;-74
2022/04/03 13:56:05;;;;;;;6.27;2.10;;;10.10;99.90;;;;;;4993896;28;20416;-73
2022/04/03 13:58:31;;;;;;;6.80;2.30;;;;;;;;;;4993917;28;20409;-73
2022/04/03 14:00:58;;;;;;;9.53;1.80;;;;;;;;;;4993488;28;21737;-74
2022/04/03 14:03:25;;;;;;;4.00;2.10;;;;;;;;;;4994188;28;20417;-74
2022/04/03 14:05:51;;;;;;;3.87;2.20;;;;;;;;;;4993808;28;20444;-74
2022/04/03 14:08:17;;;;;;;5.17;2.00;;;;;;;;;;4993613;28;20412;-73
2022/04/03 14:10:44;;;;;;;8.37;1.83;;;;;;;;;;4993527;28;20440;-73
2022/04/03 14:13:11;;;;;;;6.17;2.30;;;;;;;;;;4993930;28;20464;-73
2022/04/03 14:15:38;;;;;;;5.77;2.10;;;;;;;;;;4993549;28;20418;-73
2022/04/03 14:18:04;;;;;;;5.43;1.93;;;;;;;;;;4993642;28;20384;-73
2022/04/03 14:20:30;;;;;;;5.47;2.40;;;;;;;;;;4993409;28;20785;-70
2022/04/03 14:22:56;;;;;;;6.03;2.30;;;;;;;;;;4993521;28;20416;-70
2022/04/03 14:25:22;;;;;;;7.70;1.70;;;;;;;;;;4989645;28;20904;-70
2022/04/03 14:27:49;;;;;;;3.77;2.13;;;;;;;;;;4993533;28;20417;-70